Time;durP1;ratioP1;P1;durP2;ratioP2;P2;SDS_P1;SDS_P2;PMS_P1;PMS_P2;Temp;Humidity;BMP_temperature;BMP_pressure;BME280_temperature;BME280_humidity;BME280_pressure;Samples;Min_cycle;Max_cycle;Signal;HPM_P1;HPM_P2
2023/05/19 00:01:06;;;;;;;4.07;2.80;;;;;;;12.19;96.91;95051.66;5060585;28;20228;-79
2023/05/19 00:03:36;;;;;;;6.07;3.83;;;;;;;12.25;96.83;95051.59;5059470;28;20869;-79
2023/05/19 00:06:01;;;;;;;4.90;3.30;;;;;;;12.07;96.78;95015.41;5052587;28;20183;-79
2023/05/19 00:08:30;;;;;;;28.87;17.80;;;;;;;12.34;97.11;95046.88;5060101;28;20205;-79
2023/05/19 00:10:57;;;;;;;32.63;19.03;;;;;;;12.40;97.54;95052.06;5060205;28;20201;-79
2023/05/19 00:13:22;;;;;;;48.40;27.10;;;;;;;12.36;97.88;95052.75;5062864;28;20567;-79
2023/05/19 00:15:49;;;;;;;35.67;20.67;;;;;;;12.38;98.52;95045.38;5057752;28;20179;-79
2023/05/19 00:18:15;;;;;;;15.50;9.77;;;;;;;12.29;98.49;95034.31;5060590;28;20556;-79
2023/05/19 00:20:41;;;;;;;23.50;12.07;;;;;;;12.45;98.33;95040.88;5060329;28;20190;-78
2023/05/19 00:23:06;;;;;;;6.67;4.10;;;;;;;12.39;97.67;95042.53;5060388;28;20175;-79
2023/05/19 00:25:32;;;;;;;15.38;8.30;;;;;;;12.32;97.04;95041.00;5062681;28;20423;-79
2023/05/19 00:27:58;;;;;;;5.23;4.63;;;;;;;12.05;96.51;95008.72;5062210;28;20405;-79
2023/05/19 00:30:24;;;;;;;7.30;5.20;;;;;;;12.27;96.28;95031.09;5063083;28;20167;-79
2023/05/19 00:32:50;;;;;;;9.33;5.10;;;;;;;12.20;96.18;95024.22;5060324;28;20266;-79
2023/05/19 00:35:15;;;;;;;10.47;7.40;;;;;;;12.17;96.37;95036.03;5060238;28;20167;-79
2023/05/19 00:37:41;;;;;;;7.78;6.22;;;;;;;12.10;96.32;95027.38;5059259;28;20412;-79
2023/05/19 00:40:07;;;;;;;8.33;6.33;;;;;;;12.23;96.39;95034.38;5065534;28;20170;-79
2023/05/19 00:42:32;;;;;;;9.10;6.20;;;;;;;12.25;96.11;95035.78;5062647;28;20205;-79
2023/05/19 00:44:58;;;;;;;9.73;6.07;;;;;;;12.29;96.21;95031.66;5063251;28;20182;-79
2023/05/19 00:47:24;;;;;;;6.40;5.07;;;;;;;12.31;96.05;95031.44;5063443;28;20170;-79
2023/05/19 00:49:49;;;;;;;10.73;7.00;;;;;;;12.28;96.22;95019.47;5053867;28;20849;-79
2023/05/19 00:52:15;;;;;;;7.50;4.67;;;;;;;12.22;95.87;95009.81;5063200;28;20170;-79
2023/05/19 00:54:40;;;;;;;17.57;10.40;;;;;;;12.32;95.96;95027.78;5062926;28;20182;-79
2023/05/19 00:57:06;;;;;;;8.47;5.87;;;;;;;12.33;96.24;95022.28;5063178;28;20707;-79
2023/05/19 00:59:31;;;;;;;12.27;6.22;;;;;;;12.16;96.34;95021.22;5056253;28;20412;-79
2023/05/19 01:01:57;;;;;;;11.60;7.37;;;;;;;12.18;96.34;95024.47;5059670;28;20206;-79
2023/05/19 01:04:24;;;;;;;6.63;5.00;;;;;;;12.12;95.95;95025.31;5058209;28;20210;-79
2023/05/19 01:06:53;;;;;;;7.60;5.53;;;;;;;12.07;95.86;95023.34;5066641;28;20228;-79
2023/05/19 01:09:20;;;;;;;9.27;6.70;;;;;;;12.11;96.28;95026.34;5055665;28;20190;-79
2023/05/19 01:11:45;;;;;;;6.20;5.03;;;;;;;12.00;95.97;95027.84;5063756;28;20716;-79
2023/05/19 01:14:11;;;;;;;7.77;5.67;;;;;;;11.81;96.25;95025.38;5065074;28;20411;-79
2023/05/19 01:16:42;;;;;;;23.70;5.53;;;;;;;11.77;96.50;95022.34;5066468;28;20201;-79
2023/05/19 01:19:26;;;;;;;7.45;5.40;;;;;;;11.77;96.71;95026.78;5066300;28;20752;-78
2023/05/19 01:22:11;;;;;;;8.65;5.88;;;;;;;11.64;97.20;95025.84;5059306;28;20428;-79
2023/05/19 01:25:28;;;;;;;9.30;6.20;;;;;;;11.61;97.25;95020.19;5054963;28;20183;-79
2023/05/19 01:28:44;;;;;;;14.10;9.00;;;;;;;11.61;96.93;95022.81;5046419;28;20186;-79
2023/05/19 01:31:11;;;;;;;46.97;35.78;;;;;;;11.54;97.67;95022.88;5057261;28;20418;-79
2023/05/19 01:33:38;;;;;;;24.85;18.77;;;;;;;11.44;97.95;95026.97;5062636;28;20415;-79
2023/05/19 01:36:06;;;;;;;10.20;7.30;;;;;;;11.46;97.85;95027.59;5062989;28;20228;-79
2023/05/19 01:38:33;;;;;;;10.02;6.05;;;;;;;11.20;97.73;95004.81;5064192;28;20461;-79
2023/05/19 01:41:02;;;;;;;9.03;6.00;;;;;;;11.36;97.80;95041.22;5066337;28;20606;-79
2023/05/19 01:43:28;;;;;;;8.95;6.10;;;;;;;11.29;97.66;95035.19;5066037;28;20997;-79
2023/05/19 01:45:57;;;;;;;7.13;4.97;;;;;;;11.28;97.85;95034.38;5066115;28;20170;-79
2023/05/19 01:48:23;;;;;;;9.50;6.13;;;;;;;11.29;97.69;95037.81;5065596;28;20489;-79
2023/05/19 01:50:49;;;;;;;8.73;6.23;;;;;;;11.34;97.74;95035.34;5063195;28;20175;-79
2023/05/19 01:53:14;;;;;;;8.70;5.73;;;;;;;11.36;97.60;95038.59;5061677;28;20179;-79
2023/05/19 01:55:48;;;;;;;10.87;6.00;;;;;;;11.25;97.86;95036.59;5063680;28;20181;-80
2023/05/19 01:58:13;;;;;;;8.90;5.77;;;;;;;11.17;98.41;95037.66;5069083;28;20301;-79
2023/05/19 02:00:54;;;;;;;8.00;5.63;;;;;;;11.05;98.98;95038.53;5061959;28;20277;-79
2023/05/19 02:03:34;;;;;;;10.37;5.90;;;;;;;11.08;98.73;95035.47;5059965;28;20222;-79
2023/05/19 02:06:03;;;;;;;9.50;6.73;;;;;;;10.98;99.51;95032.50;5053255;28;20480;-79
2023/05/19 02:08:49;;;;;;;11.75;6.65;;;;;;;10.88;100.00;95023.19;5061100;28;20450;-79
2023/05/19 02:11:24;;;;;;;8.07;5.80;;;;;;;10.56;100.00;95003.03;5061130;28;20407;-79
2023/05/19 02:13:55;;;;;;;8.70;6.45;;;;;;;10.76;100.00;95030.13;5061460;28;20407;-79
2023/05/19 02:16:26;;;;;;;10.73;6.55;;;;;;;10.68;100.00;95038.25;5064905;28;20402;-80
2023/05/19 02:18:52;;;;;;;8.93;5.77;;;;;;;10.51;100.00;95010.75;5065645;28;20181;-79
2023/05/19 02:21:18;;;;;;;7.40;5.67;;;;;;;10.66;100.00;95037.63;5065731;28;20187;-79
2023/05/19 02:23:44;;;;;;;10.18;6.75;;;;;;;10.56;100.00;95039.88;5064775;28;20406;-79
2023/05/19 02:26:09;;;;;;;11.15;6.68;;;;;;;10.42;100.00;95043.56;5062665;28;20943;-79
2023/05/19 02:28:38;;;;;;;8.23;5.63;;;;;;;10.42;100.00;95038.31;5061954;28;20722;-79
2023/05/19 02:31:08;;;;;;;11.05;7.20;;;;;;;10.20;100.00;95014.84;5061262;28;20403;-79
2023/05/19 02:33:35;;;;;;;11.40;6.72;;;;;;;10.25;100.00;95022.13;5065169;28;20474;-79
2023/05/19 02:36:00;;;;;;;11.50;6.07;;;;;;;10.53;100.00;95042.94;5063924;28;20261;-79
2023/05/19 02:38:26;;;;;;;8.33;5.13;;;;;;;10.46;100.00;95023.72;5063025;28;20250;-79
2023/05/19 02:40:52;;;;;;;8.07;5.93;;;;;;;10.31;100.00;95007.34;5061922;28;20274;-79
2023/05/19 02:43:18;;;;;;;9.33;6.37;;;;;;;10.14;100.00;95005.09;5061642;28;20415;-79
2023/05/19 02:45:43;;;;;;;7.47;5.33;;;;;;;10.44;100.00;95038.91;5065024;28;20186;-79
2023/05/19 02:48:08;;;;;;;8.53;5.73;;;;;;;10.48;100.00;95045.38;5070498;28;20637;-79
2023/05/19 02:50:34;;;;;;;8.80;6.13;;;;;;;10.28;100.00;95024.38;5067462;28;20416;-79
2023/05/19 02:52:59;;;;;;;9.07;6.47;;;;;;;10.48;100.00;95042.72;5063247;28;20507;-81
2023/05/19 02:55:25;;;;;;;7.70;5.77;;;;;;;10.50;100.00;95046.78;5062652;28;20661;-79
2023/05/19 02:57:50;;;;;;;13.63;5.93;;;;;;;10.43;100.00;95039.94;5063681;28;20174;-79
2023/05/19 03:00:16;;;;;;;10.70;5.50;;;;;;;10.53;100.00;95048.22;5055837;28;20219;-79
2023/05/19 03:02:42;;;;;;;11.82;6.80;;;;;;;10.36;100.00;95039.94;5055893;28;20443;-79
2023/05/19 03:05:09;;;;;;;9.87;6.53;;;;;;;10.51;100.00;95056.31;5061292;28;21006;-79
2023/05/19 03:07:34;;;;;;;10.40;5.90;;;;;;;10.57;100.00;95054.66;5063456;28;20197;-79
2023/05/19 03:10:02;;;;;;;9.63;6.17;;;;;;;10.70;100.00;95052.03;5057181;28;20556;-79
2023/05/19 03:12:28;;;;;;;13.87;6.30;;;;;;;10.62;99.75;95033.81;5065139;28;20219;-80
2023/05/19 03:14:53;;;;;;;9.90;6.97;;;;;;;10.44;99.53;95009.97;5062342;28;20163;-80
2023/05/19 03:17:19;;;;;;;11.60;7.43;;;;;;;10.66;100.00;95060.53;5062558;28;20170;-80
2023/05/19 03:19:45;;;;;;;13.20;8.98;;;;;;;10.56;100.00;95048.59;5056102;28;20411;-80
2023/05/19 03:22:10;;;;;;;15.27;10.55;;;;;;;10.34;100.00;95034.06;5063486;28;20437;-81
2023/05/19 03:24:36;;;;;;;16.10;10.65;;;;;;;10.14;100.00;95002.47;5060034;28;20409;-81
2023/05/19 03:27:04;;;;;;;11.80;8.33;;;;;;;10.55;100.00;95057.50;5065190;28;20182;-81
2023/05/19 03:29:29;;;;;;;12.50;8.07;;;;;;;10.50;100.00;95022.28;5060870;28;20413;-81
2023/05/19 03:31:55;;;;;;;10.77;7.70;;;;;;;10.69;100.00;95052.22;5061545;28;20236;-82
2023/05/19 03:34:21;;;;;;;11.90;7.77;;;;;;;10.72;100.00;95059.72;5071769;28;20178;-82
2023/05/19 03:36:48;;;;;;;10.77;7.47;;;;;;;10.50;100.00;95006.50;5072182;28;20170;-81
2023/05/19 03:39:14;;;;;;;11.33;7.30;;;;;;;10.61;100.00;95012.97;5072861;28;20668;-81
2023/05/19 03:41:40;;;;;;;12.60;7.57;;;;;;;10.91;100.00;95058.84;5072500;28;20218;-82
2023/05/19 03:44:05;;;;;;;13.00;7.83;;;;;;;10.63;100.00;95008.31;5072247;28;20217;-82
2023/05/19 03:46:30;;;;;;;20.07;8.00;;;;;;;10.61;100.00;95021.66;5072554;28;20161;-82
2023/05/19 03:48:56;;;;;;;14.27;9.03;;;;;;;10.77;99.95;95013.31;5072266;28;20238;-82
2023/05/19 03:51:21;;;;;;;15.10;8.07;;;;;;;10.93;99.47;95015.47;5072235;28;20601;-81
2023/05/19 03:53:47;;;;;;;12.93;7.20;;;;;;;11.40;98.61;95070.63;5072332;28;20238;-81
2023/05/19 03:56:13;;;;;;;21.00;8.60;;;;;;;11.49;98.46;95064.88;5072170;28;20232;-81
2023/05/19 03:58:42;;;;;;;11.30;8.23;;;;;;;11.17;98.27;94990.22;5072202;28;20166;-82
2023/05/19 04:01:08;;;;;;;13.27;7.97;;;;;;;11.60;97.44;95034.38;5072529;28;20226;-82
2023/05/19 04:03:33;;;;;;;12.50;7.50;;;;;;;11.75;96.66;95050.78;5069458;28;20258;-81
2023/05/19 04:05:59;;;;;;;10.47;7.20;;;;;;;11.91;96.33;95050.25;5062899;28;20171;-82
2023/05/19 04:08:24;;;;;;;11.03;7.30;;;;;;;11.95;95.93;95022.41;5064179;28;20240;-81
2023/05/19 04:10:50;;;;;;;12.57;6.93;;;;;;;12.54;95.04;95083.66;5061236;28;20208;-81
2023/05/19 04:13:15;;;;;;;10.37;7.07;;;;;;;12.77;95.14;95084.66;5055800;28;20699;-81
2023/05/19 04:15:41;;;;;;;11.83;7.40;;;;;;;12.92;94.37;95059.69;5052139;28;20163;-81
2023/05/19 04:18:06;;;;;;;10.37;7.57;;;;;;;13.29;93.10;95079.03;5064348;28;20167;-81
2023/05/19 04:20:31;;;;;;;12.00;8.57;;;;;;;13.23;91.81;95034.97;5061939;28;20261;-82
2023/05/19 04:22:57;;;;;;;11.90;8.07;;;;;;;13.70;91.13;95059.78;5058870;28;20545;-82
2023/05/19 04:25:24;;;;;;;9.73;7.07;;;;;;;14.11;89.29;95078.31;5067907;28;20179;-82
2023/05/19 04:27:49;;;;;;;11.90;6.97;;;;;;;14.38;87.44;95077.88;5072003;28;20507;-81
2023/05/19 04:30:20;;;;;;;10.50;6.73;;;;;;;14.79;86.28;95091.06;5071761;28;20163;-80
2023/05/19 04:32:47;;;;;;;13.07;8.20;;;;;;;15.09;83.30;95097.06;5061892;28;20219;-81
2023/05/19 04:35:12;;;;;;;10.97;7.10;;;;;;;15.19;82.59;95077.91;5065300;28;20227;-79
2023/05/19 04:37:37;;;;;;;8.43;6.57;;;;;;;15.65;81.64;95105.41;5064244;28;20175;-79
2023/05/19 04:40:05;;;;;;;10.17;6.77;;;;;;;15.89;78.87;95106.13;5067582;28;20170;-79
2023/05/19 04:42:31;;;;;;;10.40;6.43;;;;;;;16.13;78.96;95112.94;5066543;28;20247;-79
2023/05/19 04:44:57;;;;;;;10.77;7.22;;;;;;;16.32;77.78;95101.03;5065600;28;20224;-80
2023/05/19 04:47:26;;;;;;;8.40;5.90;;;;;;;16.79;77.97;95114.03;5065253;28;20246;-80
2023/05/19 04:49:54;;;;;;;11.25;6.15;;;;;;;16.55;75.29;95110.72;5064851;28;20186;-79
2023/05/19 04:52:21;;;;;;;8.40;6.37;;;;;;;16.91;76.11;95115.56;5063589;28;20159;-80
2023/05/19 04:54:46;;;;;;;9.93;6.90;;;;;;;17.36;74.33;95117.25;5063160;28;20211;-79
2023/05/19 04:57:11;;;;;;;19.35;7.80;;;;;;;17.59;73.09;95106.38;5072233;28;20265;-80
2023/05/19 04:59:37;;;;;;;10.23;6.25;;;;;;;18.15;73.25;95114.22;5064089;28;20186;-80
2023/05/19 05:02:03;;;;;;;11.05;6.22;;;;;;;18.36;70.32;95116.00;5064589;28;20207;-80
2023/05/19 05:04:28;;;;;;;8.63;6.43;;;;;;;18.88;69.58;95116.22;5075447;28;20225;-80
2023/05/19 05:06:54;;;;;;;8.57;6.10;;;;;;;19.36;67.81;95119.72;5067019;28;20201;-80
2023/05/19 05:09:19;;;;;;;10.02;6.38;;;;;;;19.86;67.09;95128.00;5067379;28;20174;-80
2023/05/19 05:11:45;;;;;;;12.30;7.68;;;;;;;20.25;63.99;95106.16;5075853;28;20189;-80
2023/05/19 05:14:11;;;;;;;10.18;7.05;;;;;;;20.62;61.41;95122.03;5066229;28;20309;-80
2023/05/19 05:16:37;;;;;;;15.95;10.23;;;;;;;20.66;61.84;95125.81;5063630;28;20741;-80
2023/05/19 05:19:03;;;;;;;10.10;6.40;;;;;;;20.84;61.55;95129.81;5063185;28;20224;-80
2023/05/19 05:21:28;;;;;;;8.45;6.28;;;;;;;21.49;60.32;95125.47;5065468;28;20198;-80
2023/05/19 05:23:54;;;;;;;12.15;7.18;;;;;;;21.76;58.76;95096.44;5066622;28;20180;-80
2023/05/19 05:26:23;;;;;;;7.20;5.68;;;;;;;22.43;58.07;95109.22;5066200;28;20249;-81
2023/05/19 05:28:48;;;;;;;7.55;5.70;;;;;;;22.95;56.23;95083.63;5067297;28;20265;-80
2023/05/19 05:31:14;;;;;;;6.78;5.28;;;;;;;23.75;54.81;95102.69;5075048;28;20194;-80
2023/05/19 05:33:40;;;;;;;7.00;5.30;;;;;;;24.03;53.36;95111.78;5063550;28;20170;-80
2023/05/19 05:36:06;;;;;;;8.43;5.85;;;;;;;24.43;52.20;95103.16;5063193;28;20227;-80
2023/05/19 05:38:32;;;;;;;6.97;4.95;;;;;;;24.67;51.72;95092.31;5063573;28;20167;-80
2023/05/19 05:40:57;;;;;;;8.77;5.38;;;;;;;25.06;51.08;95120.81;5075257;28;20661;-80
2023/05/19 05:43:22;;;;;;;8.95;6.18;;;;;;;25.05;50.07;95117.31;5066532;28;20182;-80
2023/05/19 05:45:48;;;;;;;9.27;6.30;;;;;;;25.09;48.80;95112.13;5057665;28;20163;-80
2023/05/19 05:48:14;;;;;;;7.00;5.13;;;;;;;24.87;49.86;95101.16;5066313;28;20177;-80
2023/05/19 05:50:41;;;;;;;8.70;5.97;;;;;;;25.10;50.48;95121.81;5065410;28;20592;-80
2023/05/19 05:53:08;;;;;;;6.97;5.30;;;;;;;24.31;50.12;95115.44;5075003;28;20165;-80
2023/05/19 05:55:34;;;;;;;6.72;5.63;;;;;;;24.35;51.19;95111.09;5074347;28;20188;-80
2023/05/19 05:58:00;;;;;;;7.18;5.50;;;;;;;24.36;51.16;95118.88;5063967;28;20178;-80
2023/05/19 06:00:27;;;;;;;11.23;6.95;;;;;;;24.53;51.27;95117.56;5062707;28;20249;-80
2023/05/19 06:02:52;;;;;;;12.15;6.45;;;;;;;24.38;51.42;95122.09;5063097;28;20503;-80
2023/05/19 06:05:18;;;;;;;7.72;5.85;;;;;;;24.14;54.22;95125.88;5061929;28;20178;-80
2023/05/19 06:07:43;;;;;;;8.05;5.13;;;;;;;24.06;51.90;95130.00;5062668;28;20171;-81
2023/05/19 06:10:09;;;;;;;8.02;5.75;;;;;;;24.12;50.90;95133.47;5062458;28;20640;-80
2023/05/19 06:12:35;;;;;;;9.00;6.10;;;;;;;23.56;52.81;95102.66;5062294;28;20167;-81
2023/05/19 06:15:03;;;;;;;7.38;5.93;;;;;;;22.91;53.74;95131.75;5063053;28;20229;-80
2023/05/19 06:17:29;;;;;;;9.95;6.28;;;;;;;22.52;55.17;95106.75;5065540;28;20635;-80
2023/05/19 06:19:54;;;;;;;10.52;6.15;;;;;;;22.50;56.88;95122.31;5073894;28;20241;-80
2023/05/19 06:22:20;;;;;;;7.10;5.60;;;;;;;22.69;57.63;95120.59;5064274;28;20202;-80
2023/05/19 06:24:46;;;;;;;7.93;5.95;;;;;;;22.40;55.51;95115.13;5059447;28;20224;-80
2023/05/19 06:27:12;;;;;;;14.25;7.85;;;;;;;22.57;57.06;95107.50;5062155;28;20171;-81
2023/05/19 06:29:37;;;;;;;10.13;6.95;;;;;;;22.77;59.15;95129.94;5066424;28;20171;-80
2023/05/19 06:32:03;;;;;;;8.60;4.90;;;;;;;22.94;56.70;95131.16;5065480;28;20668;-80
2023/05/19 06:34:28;;;;;;;9.20;5.03;;;;;;;22.98;55.60;95125.22;5062655;28;20242;-81
2023/05/19 06:36:54;;;;;;;6.50;4.63;;;;;;;22.83;56.34;95097.41;5054009;28;20585;-80
2023/05/19 06:39:19;;;;;;;13.43;5.22;;;;;;;23.05;57.44;95126.50;5059604;28;20178;-81
2023/05/19 06:41:45;;;;;;;6.30;5.00;;;;;;;23.25;57.50;95128.22;5064803;28;20190;-79
2023/05/19 06:44:10;;;;;;;7.10;4.80;;;;;;;23.46;58.14;95118.03;5057964;28;20168;-79
2023/05/19 06:46:36;;;;;;;7.65;4.80;;;;;;;23.66;56.99;95121.34;5055353;28;20623;-79
2023/05/19 06:49:01;;;;;;;7.10;3.90;;;;;;;23.63;55.32;95127.28;5065158;28;20172;-79
2023/05/19 06:51:27;;;;;;;7.80;5.35;;;;;;;23.63;54.97;95129.97;5064710;28;20167;-79
2023/05/19 06:53:52;;;;;;;5.45;4.18;;;;;;;23.69;55.76;95126.16;5061380;28;20210;-79
2023/05/19 06:56:18;;;;;;;8.25;5.63;;;;;;;23.74;55.72;95132.56;5068187;28;20162;-79
2023/05/19 06:58:44;;;;;;;7.28;4.43;;;;;;;23.82;57.18;95134.63;5073234;28;20252;-79
2023/05/19 07:01:09;;;;;;;9.93;5.13;;;;;;;23.83;52.55;95141.59;5064165;28;20197;-80
2023/05/19 07:03:35;;;;;;;7.15;4.63;;;;;;;23.85;56.74;95139.44;5056315;28;20222;-79
2023/05/19 07:06:00;;;;;;;6.57;4.53;;;;;;;23.99;55.15;95138.44;5064797;28;20265;-80
2023/05/19 07:08:27;;;;;;;8.75;5.03;;;;;;;24.21;54.79;95140.63;5064593;28;20637;-81
2023/05/19 07:10:54;;;;;;;9.35;5.10;;;;;;;24.24;53.32;95144.63;5061690;28;20166;-80
2023/05/19 07:13:20;;;;;;;6.60;5.03;;;;;;;24.24;53.07;95144.63;5061282;28;20194;-79
2023/05/19 07:15:47;;;;;;;6.85;4.28;;;;;;;24.22;54.87;95144.91;5056031;28;20566;-79
2023/05/19 07:18:13;;;;;;;6.10;4.80;;;;;;;24.25;52.13;95149.72;5054405;28;20186;-79
2023/05/19 07:20:38;;;;;;;7.90;5.03;;;;;;;24.22;51.46;95144.91;5061217;28;20170;-79
2023/05/19 07:23:04;;;;;;;6.55;4.68;;;;;;;23.86;52.13;95147.22;5060959;28;20175;-79
2023/05/19 07:25:29;;;;;;;8.95;5.05;;;;;;;23.41;53.22;95150.34;5065725;28;20201;-81
2023/05/19 07:27:55;;;;;;;7.05;4.85;;;;;;;23.33;53.66;95149.91;5056289;28;20179;-79
2023/05/19 07:30:21;;;;;;;6.13;4.45;;;;;;;23.15;53.84;95136.34;5072592;28;20265;-80
2023/05/19 07:32:46;;;;;;;7.45;4.55;;;;;;;23.41;58.38;95143.09;5063965;28;20316;-80
2023/05/19 07:35:12;;;;;;;7.00;5.15;;;;;;;23.84;55.25;95143.22;5063954;28;20182;-80
2023/05/19 07:37:37;;;;;;;6.20;4.82;;;;;;;23.76;53.63;95122.31;5064161;28;20567;-80
2023/05/19 07:40:05;;;;;;;6.45;4.53;;;;;;;23.77;53.51;95145.44;5056283;28;20236;-79
2023/05/19 07:42:31;;;;;;;7.00;5.25;;;;;;;23.68;53.39;95129.13;5063276;28;20601;-81
2023/05/19 07:44:57;;;;;;;7.45;4.60;;;;;;;23.87;54.53;95145.34;5063682;28;20257;-80
2023/05/19 07:47:22;;;;;;;7.65;4.60;;;;;;;23.75;53.65;95136.84;5062681;28;20167;-79
2023/05/19 07:49:48;;;;;;;6.05;4.30;;;;;;;23.34;52.31;95134.56;5065513;28;20189;-81
2023/05/19 07:52:13;;;;;;;8.60;5.15;;;;;;;23.01;53.06;95146.94;5064483;28;20160;-78
2023/05/19 07:54:38;;;;;;;22.67;5.53;;;;;;;22.65;52.50;95143.72;5068870;28;20257;-80
2023/05/19 07:57:04;;;;;;;11.70;5.45;;;;;;;22.51;53.54;95138.16;5060371;28;20174;-78
2023/05/19 07:59:30;;;;;;;6.78;5.28;;;;;;;22.73;55.63;95124.34;5060613;28;20227;-82
2023/05/19 08:01:56;;;;;;;6.18;4.32;;;;;;;22.72;55.49;95128.09;5063137;28;20206;-84
2023/05/19 08:04:21;;;;;;;8.00;5.35;;;;;;;22.64;54.40;95099.16;5071846;28;20631;-82
2023/05/19 08:06:46;;;;;;;7.30;5.10;;;;;;;23.18;54.88;95138.47;5072211;28;20572;-80
2023/05/19 08:09:12;;;;;;;7.95;4.90;;;;;;;23.44;54.72;95139.81;5063375;28;20179;-80
2023/05/19 08:11:37;;;;;;;7.75;5.45;;;;;;;23.55;54.37;95103.72;5063245;28;20498;-80
2023/05/19 08:14:03;;;;;;;10.80;5.32;;;;;;;23.92;53.40;95118.38;5059943;28;20186;-83
2023/05/19 08:16:28;;;;;;;8.88;5.15;;;;;;;24.34;53.78;95131.03;5051845;28;20158;-83
2023/05/19 08:18:54;;;;;;;9.55;5.10;;;;;;;24.66;52.26;95144.56;5053489;28;20169;-80
2023/05/19 08:21:20;;;;;;;8.27;5.30;;;;;;;24.81;49.38;95144.34;5058362;28;20270;-80
2023/05/19 08:23:46;;;;;;;9.18;5.28;;;;;;;24.83;49.99;95141.34;5047547;28;20195;-78
2023/05/19 08:26:11;;;;;;;9.77;6.18;;;;;;;24.79;50.68;95145.72;5051934;28;20646;-80
2023/05/19 08:28:36;;;;;;;8.43;5.78;;;;;;;24.36;50.86;95135.03;5060164;28;20213;-82
2023/05/19 08:31:02;;;;;;;8.38;5.38;;;;;;;23.80;52.64;95137.59;5061541;28;20166;-82
2023/05/19 08:33:28;;;;;;;11.63;5.60;;;;;;;23.18;50.57;95136.59;5071749;28;20261;-82
2023/05/19 08:35:56;;;;;;;9.10;5.50;;;;;;;22.93;54.08;95118.00;5065123;28;20182;-87
2023/05/19 08:38:22;;;;;;;9.38;5.15;;;;;;;23.10;52.73;95131.81;5051876;28;20593;-84
2023/05/19 08:40:48;;;;;;;8.05;5.60;;;;;;;23.09;54.58;95130.22;5055940;28;20253;-82
2023/05/19 08:43:13;;;;;;;12.52;6.22;;;;;;;22.93;52.34;95132.22;5060331;28;20175;-81
2023/05/19 08:45:42;;;;;;;11.13;6.00;;;;;;;22.62;53.97;95095.16;5059948;28;20660;-82
2023/05/19 08:48:07;;;;;;;8.27;4.93;;;;;;;22.56;55.13;95130.09;5054943;28;20172;-82
2023/05/19 08:50:37;;;;;;;10.00;6.50;;;;;;;22.64;53.15;95126.00;5054222;28;20186;-83
2023/05/19 08:53:09;;;;;;;9.57;6.38;;;;;;;22.55;52.72;95123.13;5051934;28;20178;-82
2023/05/19 08:55:49;;;;;;;8.73;5.63;;;;;;;22.50;54.50;95127.69;5052861;28;20661;-82
2023/05/19 08:58:19;;;;;;;9.02;6.53;;;;;;;22.22;53.75;95126.53;5048508;28;20167;-81
2023/05/19 09:00:45;;;;;;;9.65;6.43;;;;;;;21.85;53.32;95086.75;5052522;28;20577;-81
2023/05/19 09:03:12;;;;;;;9.73;6.60;;;;;;;22.03;55.37;95109.47;5056451;28;20309;-81
2023/05/19 09:05:38;;;;;;;13.80;6.95;;;;;;;22.20;56.67;95104.56;5053658;28;20221;-80
2023/05/19 09:08:03;;;;;;;10.40;6.68;;;;;;;22.30;54.51;95103.69;5050303;28;20186;-82
2023/05/19 09:10:29;;;;;;;10.43;6.05;;;;;;;22.39;55.41;95078.69;5054120;28;20568;-81
2023/05/19 09:12:54;;;;;;;9.70;6.40;;;;;;;22.61;52.83;95104.28;5058557;28;20257;-80
2023/05/19 09:15:25;;;;;;;10.23;5.50;;;;;;;22.37;54.47;95082.72;5058211;28;20559;-82
2023/05/19 09:17:50;;;;;;;13.07;7.00;;;;;;;22.28;53.43;95074.47;5064627;28;20308;-83
2023/05/19 09:20:16;;;;;;;8.52;5.88;;;;;;;22.17;54.82;95102.41;5071354;28;20647;-80
2023/05/19 09:22:46;;;;;;;14.70;7.00;;;;;;;22.12;54.21;95102.47;5071318;28;20741;-81
2023/05/19 09:25:23;;;;;;;12.65;7.40;;;;;;;22.12;54.85;95102.47;5072864;28;20219;-80
2023/05/19 09:27:49;;;;;;;9.98;6.63;;;;;;;21.23;56.80;95052.41;5062331;28;20206;-80
2023/05/19 09:30:18;;;;;;;9.27;6.32;;;;;;;21.48;57.43;95099.75;5051538;28;20609;-81
2023/05/19 09:32:44;;;;;;;19.05;6.55;;;;;;;21.36;56.17;95097.38;5052564;28;20716;-81
2023/05/19 09:35:11;;;;;;;14.38;6.82;;;;;;;21.41;58.90;95103.53;5072309;28;20174;-81
2023/05/19 09:37:40;;;;;;;11.98;6.22;;;;;;;20.96;54.97;95090.19;5072379;28;20265;-81
2023/05/19 09:40:09;;;;;;;9.85;6.43;;;;;;;21.05;57.03;95099.28;5071892;28;20176;-81
2023/05/19 09:42:39;;;;;;;11.25;6.90;;;;;;;21.07;57.31;95099.81;5062604;28;20673;-81
2023/05/19 09:45:06;;;;;;;9.98;6.75;;;;;;;20.86;56.98;95058.06;5060401;28;20198;-81
2023/05/19 09:47:39;;;;;;;11.27;7.22;;;;;;;21.26;55.86;95102.75;5070195;28;20232;-81
2023/05/19 09:50:07;;;;;;;12.30;6.65;;;;;;;21.37;59.26;95096.28;5070590;28;20183;-81
2023/05/19 09:52:42;;;;;;;15.32;6.70;;;;;;;21.52;61.41;95092.78;5056851;28;20189;-81
2023/05/19 09:55:12;;;;;;;9.65;6.05;;;;;;;21.58;55.27;95094.34;5051584;28;20198;-81
2023/05/19 09:57:38;;;;;;;12.60;6.97;;;;;;;21.40;54.73;95085.03;5054832;28;20163;-81
2023/05/19 10:00:14;;;;;;;11.35;7.07;;;;;;;21.53;56.43;95089.84;5061042;28;20175;-80
2023/05/19 10:02:41;;;;;;;9.18;6.50;;;;;;;21.73;56.87;95078.22;5054504;28;20284;-80
2023/05/19 10:05:12;;;;;;;11.40;5.70;;;;;;;21.51;53.42;95080.44;5053522;28;20261;-80
2023/05/19 10:07:39;;;;;;;14.13;6.95;;;;;;;21.54;55.26;95082.56;5051860;28;20183;-80
2023/05/19 10:10:10;;;;;;;14.75;6.70;;;;;;;21.66;55.36;95080.38;5053824;28;20654;-80
2023/05/19 10:12:38;;;;;;;11.10;7.10;;;;;;;21.45;55.16;95066.25;5051867;28;20580;-79
2023/05/19 10:15:05;;;;;;;10.07;6.72;;;;;;;21.37;55.29;95056.09;5052020;28;20175;-79
2023/05/19 10:17:32;;;;;;;12.70;6.10;;;;;;;21.40;55.57;95069.75;5051869;28;20179;-78
2023/05/19 10:19:58;;;;;;;14.38;7.07;;;;;;;21.43;59.20;95068.44;5051953;28;20171;-79
2023/05/19 10:22:23;;;;;;;11.45;6.57;;;;;;;21.36;56.71;95081.31;5051639;28;20709;-80
2023/05/19 10:24:49;;;;;;;11.52;7.43;;;;;;;21.35;55.31;95067.13;5054976;28;20544;-81
2023/05/19 10:27:16;;;;;;;9.07;6.70;;;;;;;21.38;54.62;95069.22;5071940;28;20179;-80
2023/05/19 10:29:48;;;;;;;9.63;6.03;;;;;;;21.41;53.40;95068.69;5068420;28;20734;-80
2023/05/19 10:32:18;;;;;;;8.07;6.18;;;;;;;21.41;51.92;95070.56;5055847;28;20175;-80
2023/05/19 10:35:04;;;;;;;11.65;6.85;;;;;;;21.44;54.33;95062.81;5057645;28;20179;-80
2023/05/19 10:38:09;;;;;;;10.88;6.65;;;;;;;21.58;54.91;95057.66;5068309;28;20240;-79
2023/05/19 10:41:12;;;;;;;14.10;6.57;;;;;;;21.76;53.28;95058.91;5050426;28;20179;-79
2023/05/19 10:44:05;;;;;;;12.63;7.05;;;;;;;21.83;53.67;95062.88;5050515;28;20182;-79
2023/05/19 10:46:31;;;;;;;12.25;6.53;;;;;;;21.92;53.54;95044.34;5063498;28;20768;-79
2023/05/19 10:48:56;;;;;;;11.70;6.55;;;;;;;22.07;53.65;95057.69;5064963;28;20174;-79
2023/05/19 10:51:32;;;;;;;10.05;6.28;;;;;;;22.15;51.48;95054.41;5071335;28;20174;-79
2023/05/19 10:54:01;;;;;;;10.55;6.72;;;;;;;22.15;50.07;95051.72;5071176;28;20182;-80
2023/05/19 10:56:33;;;;;;;8.55;6.70;;;;;;;22.07;52.28;95052.31;5060068;28;20167;-79
2023/05/19 10:59:00;;;;;;;10.68;6.63;;;;;;;22.10;51.16;95057.13;5051348;28;20147;-79
2023/05/19 11:01:34;;;;;;;9.52;6.00;;;;;;;21.94;49.81;95042.19;5054437;28;20677;-79
2023/05/19 11:04:10;;;;;;;11.35;6.30;;;;;;;21.99;49.54;95044.06;5063978;28;20221;-79
2023/05/19 11:06:36;;;;;;;11.30;6.53;;;;;;;21.95;50.95;95049.16;5061462;28;20249;-79
2023/05/19 11:09:12;;;;;;;10.30;6.90;;;;;;;21.99;54.19;95047.53;5061133;28;20174;-79
2023/05/19 11:11:51;;;;;;;10.68;6.72;;;;;;;22.17;52.02;95040.72;5053619;28;20261;-79
2023/05/19 11:14:24;;;;;;;8.68;6.47;;;;;;;22.29;52.16;95049.25;5059879;28;20245;-78
2023/05/19 11:16:51;;;;;;;10.75;6.28;;;;;;;22.33;49.94;95054.84;5058889;28;20190;-78
2023/05/19 11:19:25;;;;;;;10.00;5.85;;;;;;;22.36;49.00;95046.22;5057913;28;20669;-79
2023/05/19 11:21:53;;;;;;;9.90;6.03;;;;;;;22.36;47.79;95046.22;5055111;28;20213;-79
2023/05/19 11:24:43;;;;;;;10.35;6.53;;;;;;;22.37;48.56;95035.22;5051940;28;20183;-79
2023/05/19 11:27:31;;;;;;;9.35;6.10;;;;;;;22.44;47.09;95048.31;5052867;28;20614;-82
2023/05/19 11:30:08;;;;;;;10.88;6.50;;;;;;;22.56;47.72;95051.44;5039236;28;20159;-79
2023/05/19 11:32:37;;;;;;;13.65;7.40;;;;;;;22.62;46.87;95042.28;5050503;28;20213;-79